sensor_id;sensor_type;location;lat;lon;timestamp;P1;durP1;ratioP1;P2;durP2;ratioP2
32850;SDS011;19202;48.992;8.390;2022-12-07T00:01:51;12.10;;;7.43;;
32850;SDS011;19202;48.992;8.390;2022-12-07T00:07:29;14.88;;;7.85;;
32850;SDS011;19202;48.992;8.390;2022-12-07T00:13:07;14.48;;;7.30;;
32850;SDS011;19202;48.992;8.390;2022-12-07T00:18:45;16.55;;;8.13;;
32850;SDS011;19202;48.992;8.390;2022-12-07T00:24:23;13.23;;;7.53;;
32850;SDS011;19202;48.992;8.390;2022-12-07T00:30:02;14.52;;;7.88;;
32850;SDS011;19202;48.992;8.390;2022-12-07T00:35:40;15.68;;;8.15;;
32850;SDS011;19202;48.992;8.390;2022-12-07T00:41:18;13.95;;;7.45;;
32850;SDS011;19202;48.992;8.390;2022-12-07T00:46:59;14.35;;;7.78;;
32850;SDS011;19202;48.992;8.390;2022-12-07T00:52:37;15.40;;;7.60;;
32850;SDS011;19202;48.992;8.390;2022-12-07T00:58:15;15.95;;;8.48;;
32850;SDS011;19202;48.992;8.390;2022-12-07T01:03:53;21.10;;;8.50;;
32850;SDS011;19202;48.992;8.390;2022-12-07T01:09:32;17.23;;;8.82;;
32850;SDS011;19202;48.992;8.390;2022-12-07T01:15:10;16.83;;;8.25;;
32850;SDS011;19202;48.992;8.390;2022-12-07T01:20:56;16.98;;;8.57;;
32850;SDS011;19202;48.992;8.390;2022-12-07T01:26:35;15.60;;;8.35;;
32850;SDS011;19202;48.992;8.390;2022-12-07T01:32:13;17.80;;;8.95;;
32850;SDS011;19202;48.992;8.390;2022-12-07T01:37:51;15.23;;;7.88;;
32850;SDS011;19202;48.992;8.390;2022-12-07T01:43:30;17.60;;;8.80;;
32850;SDS011;19202;48.992;8.390;2022-12-07T01:49:11;13.65;;;7.93;;
32850;SDS011;19202;48.992;8.390;2022-12-07T01:54:54;15.57;;;8.27;;
32850;SDS011;19202;48.992;8.390;2022-12-07T02:00:36;17.60;;;9.35;;
32850;SDS011;19202;48.992;8.390;2022-12-07T02:06:15;16.20;;;8.95;;
32850;SDS011;19202;48.992;8.390;2022-12-07T02:11:56;15.73;;;8.32;;
32850;SDS011;19202;48.992;8.390;2022-12-07T02:41:24;21.17;;;9.20;;
32850;SDS011;19202;48.992;8.390;2022-12-07T02:47:07;31.45;;;10.75;;
32850;SDS011;19202;48.992;8.390;2022-12-07T02:52:48;34.78;;;11.35;;
32850;SDS011;19202;48.992;8.390;2022-12-07T02:58:35;28.73;;;11.32;;
32850;SDS011;19202;48.992;8.390;2022-12-07T03:04:39;21.15;;;9.63;;
32850;SDS011;19202;48.992;8.390;2022-12-07T03:10:28;20.02;;;10.32;;
32850;SDS011;19202;48.992;8.390;2022-12-07T03:16:18;22.13;;;10.55;;
32850;SDS011;19202;48.992;8.390;2022-12-07T03:22:00;25.50;;;10.32;;
32850;SDS011;19202;48.992;8.390;2022-12-07T03:27:46;23.67;;;10.10;;
32850;SDS011;19202;48.992;8.390;2022-12-07T03:33:36;18.08;;;9.02;;
32850;SDS011;19202;48.992;8.390;2022-12-07T03:39:27;20.40;;;9.18;;
32850;SDS011;19202;48.992;8.390;2022-12-07T03:45:37;22.75;;;9.85;;
32850;SDS011;19202;48.992;8.390;2022-12-07T03:51:26;25.00;;;10.43;;
32850;SDS011;19202;48.992;8.390;2022-12-07T03:57:11;21.60;;;9.07;;
32850;SDS011;19202;48.992;8.390;2022-12-07T04:02:53;28.48;;;10.65;;
32850;SDS011;19202;48.992;8.390;2022-12-07T04:08:32;21.55;;;9.02;;
32850;SDS011;19202;48.992;8.390;2022-12-07T04:14:10;18.08;;;8.20;;
32850;SDS011;19202;48.992;8.390;2022-12-07T04:19:56;20.38;;;9.52;;
32850;SDS011;19202;48.992;8.390;2022-12-07T04:25:34;19.48;;;9.38;;
32850;SDS011;19202;48.992;8.390;2022-12-07T04:31:12;18.75;;;9.13;;
32850;SDS011;19202;48.992;8.390;2022-12-07T04:36:50;23.50;;;9.70;;
32850;SDS011;19202;48.992;8.390;2022-12-07T04:42:28;21.35;;;9.70;;
32850;SDS011;19202;48.992;8.390;2022-12-07T04:48:06;27.55;;;11.52;;
32850;SDS011;19202;48.992;8.390;2022-12-07T04:53:44;30.45;;;11.30;;
32850;SDS011;19202;48.992;8.390;2022-12-07T04:59:21;21.08;;;8.88;;
32850;SDS011;19202;48.992;8.390;2022-12-07T05:04:59;18.75;;;8.98;;
32850;SDS011;19202;48.992;8.390;2022-12-07T05:10:37;21.42;;;10.55;;
32850;SDS011;19202;48.992;8.390;2022-12-07T05:16:15;19.23;;;9.15;;
32850;SDS011;19202;48.992;8.390;2022-12-07T05:21:54;22.75;;;10.43;;
32850;SDS011;19202;48.992;8.390;2022-12-07T05:27:31;21.63;;;9.07;;
32850;SDS011;19202;48.992;8.390;2022-12-07T05:33:09;21.92;;;8.93;;
32850;SDS011;19202;48.992;8.390;2022-12-07T05:38:47;23.08;;;10.75;;
32850;SDS011;19202;48.992;8.390;2022-12-07T05:44:25;17.05;;;9.27;;
32850;SDS011;19202;48.992;8.390;2022-12-07T05:50:03;21.33;;;9.52;;
32850;SDS011;19202;48.992;8.390;2022-12-07T05:55:42;25.98;;;10.73;;
32850;SDS011;19202;48.992;8.390;2022-12-07T06:01:21;19.75;;;8.75;;
32850;SDS011;19202;48.992;8.390;2022-12-07T06:06:59;16.98;;;9.13;;
32850;SDS011;19202;48.992;8.390;2022-12-07T06:12:36;21.30;;;8.77;;
32850;SDS011;19202;48.992;8.390;2022-12-07T06:18:17;16.75;;;8.60;;
32850;SDS011;19202;48.992;8.390;2022-12-07T06:23:55;18.55;;;9.15;;
32850;SDS011;19202;48.992;8.390;2022-12-07T06:29:33;19.10;;;8.98;;
32850;SDS011;19202;48.992;8.390;2022-12-07T06:35:11;19.35;;;8.40;;
32850;SDS011;19202;48.992;8.390;2022-12-07T06:40:49;21.58;;;9.90;;
32850;SDS011;19202;48.992;8.390;2022-12-07T06:46:27;19.02;;;9.05;;
32850;SDS011;19202;48.992;8.390;2022-12-07T06:52:05;17.95;;;8.85;;
32850;SDS011;19202;48.992;8.390;2022-12-07T06:57:43;18.27;;;8.77;;
32850;SDS011;19202;48.992;8.390;2022-12-07T07:03:21;16.92;;;8.07;;
32850;SDS011;19202;48.992;8.390;2022-12-07T07:08:59;20.35;;;8.55;;
32850;SDS011;19202;48.992;8.390;2022-12-07T07:14:37;27.88;;;10.27;;
32850;SDS011;19202;48.992;8.390;2022-12-07T07:20:15;16.00;;;8.05;;
32850;SDS011;19202;48.992;8.390;2022-12-07T07:25:53;19.27;;;8.98;;
32850;SDS011;19202;48.992;8.390;2022-12-07T07:31:30;17.38;;;9.70;;
32850;SDS011;19202;48.992;8.390;2022-12-07T07:37:09;18.30;;;8.93;;
32850;SDS011;19202;48.992;8.390;2022-12-07T07:42:50;16.42;;;7.75;;
32850;SDS011;19202;48.992;8.390;2022-12-07T07:48:30;22.77;;;9.55;;
32850;SDS011;19202;48.992;8.390;2022-12-07T07:54:08;14.30;;;7.88;;
32850;SDS011;19202;48.992;8.390;2022-12-07T07:59:46;22.58;;;10.27;;
32850;SDS011;19202;48.992;8.390;2022-12-07T08:05:24;15.82;;;7.15;;
32850;SDS011;19202;48.992;8.390;2022-12-07T08:11:04;14.80;;;8.18;;
32850;SDS011;19202;48.992;8.390;2022-12-07T08:16:43;15.32;;;7.53;;
32850;SDS011;19202;48.992;8.390;2022-12-07T08:22:21;16.60;;;8.07;;
32850;SDS011;19202;48.992;8.390;2022-12-07T08:27:58;12.43;;;6.82;;
32850;SDS011;19202;48.992;8.390;2022-12-07T08:33:38;16.67;;;7.03;;
32850;SDS011;19202;48.992;8.390;2022-12-07T08:39:17;15.45;;;7.13;;
32850;SDS011;19202;48.992;8.390;2022-12-07T08:44:55;14.40;;;6.90;;
32850;SDS011;19202;48.992;8.390;2022-12-07T08:50:35;15.07;;;7.50;;
32850;SDS011;19202;48.992;8.390;2022-12-07T08:56:15;12.77;;;6.82;;
32850;SDS011;19202;48.992;8.390;2022-12-07T09:01:53;12.52;;;6.85;;
32850;SDS011;19202;48.992;8.390;2022-12-07T09:07:32;15.18;;;6.95;;
32850;SDS011;19202;48.992;8.390;2022-12-07T09:13:14;13.20;;;6.60;;
32850;SDS011;19202;48.992;8.390;2022-12-07T09:18:53;13.15;;;6.93;;
32850;SDS011;19202;48.992;8.390;2022-12-07T09:24:31;14.02;;;7.28;;
32850;SDS011;19202;48.992;8.390;2022-12-07T09:30:10;11.00;;;6.57;;
32850;SDS011;19202;48.992;8.390;2022-12-07T09:35:48;17.58;;;9.52;;
32850;SDS011;19202;48.992;8.390;2022-12-07T09:41:27;13.02;;;6.78;;
32850;SDS011;19202;48.992;8.390;2022-12-07T09:47:08;13.13;;;7.10;;
32850;SDS011;19202;48.992;8.390;2022-12-07T09:52:48;12.60;;;7.10;;
32850;SDS011;19202;48.992;8.390;2022-12-07T09:58:27;14.13;;;6.93;;
32850;SDS011;19202;48.992;8.390;2022-12-07T10:04:12;16.33;;;7.30;;
32850;SDS011;19202;48.992;8.390;2022-12-07T10:09:53;13.80;;;6.75;;
32850;SDS011;19202;48.992;8.390;2022-12-07T10:15:47;13.25;;;6.93;;
32850;SDS011;19202;48.992;8.390;2022-12-07T10:21:26;15.80;;;7.32;;
32850;SDS011;19202;48.992;8.390;2022-12-07T10:27:05;13.13;;;6.43;;
32850;SDS011;19202;48.992;8.390;2022-12-07T10:32:55;14.30;;;6.78;;
32850;SDS011;19202;48.992;8.390;2022-12-07T10:38:33;18.95;;;7.30;;
32850;SDS011;19202;48.992;8.390;2022-12-07T10:44:22;17.88;;;7.15;;
32850;SDS011;19202;48.992;8.390;2022-12-07T10:56:00;11.57;;;6.68;;
32850;SDS011;19202;48.992;8.390;2022-12-07T11:08:01;13.23;;;6.65;;
32850;SDS011;19202;48.992;8.390;2022-12-07T11:20:15;14.05;;;6.78;;
32850;SDS011;19202;48.992;8.390;2022-12-07T11:32:04;18.90;;;9.77;;
32850;SDS011;19202;48.992;8.390;2022-12-07T11:37:55;15.95;;;7.60;;
32850;SDS011;19202;48.992;8.390;2022-12-07T11:43:37;15.80;;;7.83;;
32850;SDS011;19202;48.992;8.390;2022-12-07T11:55:56;25.65;;;12.32;;
32850;SDS011;19202;48.992;8.390;2022-12-07T12:07:06;15.45;;;8.15;;
32850;SDS011;19202;48.992;8.390;2022-12-07T12:12:54;21.13;;;8.63;;
32850;SDS011;19202;48.992;8.390;2022-12-07T12:24:25;18.60;;;8.75;;
32850;SDS011;19202;48.992;8.390;2022-12-07T12:30:07;19.08;;;9.02;;
32850;SDS011;19202;48.992;8.390;2022-12-07T12:41:54;19.38;;;8.80;;
32850;SDS011;19202;48.992;8.390;2022-12-07T12:47:42;17.88;;;8.30;;
32850;SDS011;19202;48.992;8.390;2022-12-07T12:53:30;15.73;;;8.98;;
32850;SDS011;19202;48.992;8.390;2022-12-07T13:10:44;19.65;;;10.30;;
32850;SDS011;19202;48.992;8.390;2022-12-07T13:16:45;22.00;;;9.98;;
32850;SDS011;19202;48.992;8.390;2022-12-07T13:28:19;20.40;;;9.05;;
32850;SDS011;19202;48.992;8.390;2022-12-07T13:33:59;18.00;;;7.85;;
32850;SDS011;19202;48.992;8.390;2022-12-07T13:39:45;14.82;;;7.80;;
32850;SDS011;19202;48.992;8.390;2022-12-07T13:45:26;15.75;;;8.50;;
32850;SDS011;19202;48.992;8.390;2022-12-07T13:51:26;14.23;;;7.68;;
32850;SDS011;19202;48.992;8.390;2022-12-07T13:57:06;14.93;;;8.63;;
32850;SDS011;19202;48.992;8.390;2022-12-07T14:03:04;15.60;;;8.07;;
32850;SDS011;19202;48.992;8.390;2022-12-07T14:09:08;16.50;;;8.05;;
32850;SDS011;19202;48.992;8.390;2022-12-07T14:14:57;12.10;;;6.38;;
32850;SDS011;19202;48.992;8.390;2022-12-07T14:20:37;17.90;;;8.75;;
32850;SDS011;19202;48.992;8.390;2022-12-07T14:26:20;11.77;;;6.60;;
32850;SDS011;19202;48.992;8.390;2022-12-07T14:32:04;13.60;;;6.82;;
32850;SDS011;19202;48.992;8.390;2022-12-07T14:38:16;16.20;;;8.32;;
32850;SDS011;19202;48.992;8.390;2022-12-07T14:43:55;18.40;;;7.55;;
32850;SDS011;19202;48.992;8.390;2022-12-07T14:49:33;15.23;;;7.47;;
32850;SDS011;19202;48.992;8.390;2022-12-07T14:55:30;20.98;;;8.40;;
32850;SDS011;19202;48.992;8.390;2022-12-07T15:01:09;15.70;;;8.00;;
32850;SDS011;19202;48.992;8.390;2022-12-07T15:06:57;12.02;;;6.63;;
32850;SDS011;19202;48.992;8.390;2022-12-07T15:12:41;11.32;;;6.28;;
32850;SDS011;19202;48.992;8.390;2022-12-07T15:18:20;19.25;;;8.30;;
32850;SDS011;19202;48.992;8.390;2022-12-07T15:23:59;11.63;;;6.43;;
32850;SDS011;19202;48.992;8.390;2022-12-07T15:29:36;13.35;;;6.45;;
32850;SDS011;19202;48.992;8.390;2022-12-07T15:35:14;14.35;;;7.03;;
32850;SDS011;19202;48.992;8.390;2022-12-07T15:40:53;13.27;;;7.25;;
32850;SDS011;19202;48.992;8.390;2022-12-07T15:46:38;14.65;;;6.90;;
32850;SDS011;19202;48.992;8.390;2022-12-07T15:52:18;21.25;;;8.30;;
32850;SDS011;19202;48.992;8.390;2022-12-07T15:57:56;16.10;;;7.93;;
32850;SDS011;19202;48.992;8.390;2022-12-07T16:03:34;16.83;;;6.65;;
32850;SDS011;19202;48.992;8.390;2022-12-07T16:09:12;17.15;;;8.70;;
32850;SDS011;19202;48.992;8.390;2022-12-07T16:14:51;13.27;;;7.00;;
32850;SDS011;19202;48.992;8.390;2022-12-07T16:20:29;12.57;;;6.15;;
32850;SDS011;19202;48.992;8.390;2022-12-07T16:26:08;12.77;;;5.97;;
32850;SDS011;19202;48.992;8.390;2022-12-07T16:31:51;11.55;;;5.90;;
32850;SDS011;19202;48.992;8.390;2022-12-07T16:37:29;13.18;;;6.07;;
32850;SDS011;19202;48.992;8.390;2022-12-07T16:43:07;14.68;;;6.53;;
32850;SDS011;19202;48.992;8.390;2022-12-07T16:48:48;15.50;;;7.32;;
32850;SDS011;19202;48.992;8.390;2022-12-07T16:54:27;17.15;;;7.78;;
32850;SDS011;19202;48.992;8.390;2022-12-07T17:00:09;19.42;;;8.88;;
32850;SDS011;19202;48.992;8.390;2022-12-07T17:05:47;12.60;;;6.60;;
32850;SDS011;19202;48.992;8.390;2022-12-07T17:11:27;13.45;;;6.95;;
32850;SDS011;19202;48.992;8.390;2022-12-07T17:17:08;14.57;;;7.50;;
32850;SDS011;19202;48.992;8.390;2022-12-07T17:22:45;14.07;;;7.45;;
32850;SDS011;19202;48.992;8.390;2022-12-07T17:28:24;20.20;;;9.63;;
32850;SDS011;19202;48.992;8.390;2022-12-07T17:34:02;16.02;;;7.28;;
32850;SDS011;19202;48.992;8.390;2022-12-07T17:39:40;13.63;;;6.82;;
32850;SDS011;19202;48.992;8.390;2022-12-07T17:45:19;20.95;;;7.60;;
32850;SDS011;19202;48.992;8.390;2022-12-07T17:51:00;16.90;;;8.57;;
32850;SDS011;19202;48.992;8.390;2022-12-07T17:56:57;14.80;;;7.75;;
32850;SDS011;19202;48.992;8.390;2022-12-07T18:02:35;13.55;;;6.63;;
32850;SDS011;19202;48.992;8.390;2022-12-07T18:08:14;17.25;;;7.28;;
32850;SDS011;19202;48.992;8.390;2022-12-07T18:13:52;18.27;;;7.82;;
32850;SDS011;19202;48.992;8.390;2022-12-07T18:19:30;12.30;;;7.05;;
32850;SDS011;19202;48.992;8.390;2022-12-07T18:25:09;15.85;;;8.35;;
32850;SDS011;19202;48.992;8.390;2022-12-07T18:30:47;18.25;;;8.85;;
32850;SDS011;19202;48.992;8.390;2022-12-07T18:36:27;17.20;;;8.32;;
32850;SDS011;19202;48.992;8.390;2022-12-07T18:42:05;15.85;;;8.70;;
32850;SDS011;19202;48.992;8.390;2022-12-07T18:47:44;21.23;;;9.80;;
32850;SDS011;19202;48.992;8.390;2022-12-07T18:53:22;24.35;;;11.93;;
32850;SDS011;19202;48.992;8.390;2022-12-07T18:59:00;27.33;;;11.27;;
32850;SDS011;19202;48.992;8.390;2022-12-07T19:04:59;19.58;;;8.85;;
32850;SDS011;19202;48.992;8.390;2022-12-07T19:10:39;22.27;;;10.13;;
32850;SDS011;19202;48.992;8.390;2022-12-07T19:16:17;17.67;;;9.60;;
32850;SDS011;19202;48.992;8.390;2022-12-07T19:21:55;27.17;;;11.85;;
32850;SDS011;19202;48.992;8.390;2022-12-07T19:27:32;25.15;;;10.55;;
32850;SDS011;19202;48.992;8.390;2022-12-07T19:33:11;22.88;;;10.52;;
32850;SDS011;19202;48.992;8.390;2022-12-07T19:38:49;28.55;;;12.13;;
32850;SDS011;19202;48.992;8.390;2022-12-07T19:44:28;20.98;;;10.27;;
32850;SDS011;19202;48.992;8.390;2022-12-07T19:50:07;23.70;;;10.70;;
32850;SDS011;19202;48.992;8.390;2022-12-07T19:55:46;24.02;;;10.35;;
32850;SDS011;19202;48.992;8.390;2022-12-07T20:01:24;22.83;;;10.80;;
32850;SDS011;19202;48.992;8.390;2022-12-07T20:07:02;31.35;;;13.43;;
32850;SDS011;19202;48.992;8.390;2022-12-07T20:12:40;24.13;;;11.57;;
32850;SDS011;19202;48.992;8.390;2022-12-07T20:18:37;25.55;;;11.27;;
32850;SDS011;19202;48.992;8.390;2022-12-07T20:24:17;24.70;;;11.20;;
32850;SDS011;19202;48.992;8.390;2022-12-07T20:29:56;19.73;;;10.75;;
32850;SDS011;19202;48.992;8.390;2022-12-07T20:35:34;23.70;;;10.88;;
32850;SDS011;19202;48.992;8.390;2022-12-07T20:41:13;25.42;;;11.18;;
32850;SDS011;19202;48.992;8.390;2022-12-07T20:47:10;22.38;;;10.80;;
32850;SDS011;19202;48.992;8.390;2022-12-07T20:52:48;22.45;;;10.93;;
32850;SDS011;19202;48.992;8.390;2022-12-07T20:58:26;23.48;;;11.68;;
32850;SDS011;19202;48.992;8.390;2022-12-07T21:04:04;22.30;;;11.32;;
32850;SDS011;19202;48.992;8.390;2022-12-07T21:09:44;24.20;;;11.98;;
32850;SDS011;19202;48.992;8.390;2022-12-07T21:15:22;22.65;;;11.82;;
32850;SDS011;19202;48.992;8.390;2022-12-07T21:21:00;27.15;;;13.02;;
32850;SDS011;19202;48.992;8.390;2022-12-07T21:26:39;23.45;;;12.68;;
32850;SDS011;19202;48.992;8.390;2022-12-07T21:32:17;27.67;;;13.05;;
32850;SDS011;19202;48.992;8.390;2022-12-07T21:37:55;25.45;;;12.82;;
32850;SDS011;19202;48.992;8.390;2022-12-07T21:43:33;26.77;;;13.27;;
32850;SDS011;19202;48.992;8.390;2022-12-07T21:49:12;33.35;;;15.00;;
32850;SDS011;19202;48.992;8.390;2022-12-07T21:54:51;29.50;;;14.65;;
32850;SDS011;19202;48.992;8.390;2022-12-07T22:00:29;30.75;;;14.70;;
32850;SDS011;19202;48.992;8.390;2022-12-07T22:06:08;28.40;;;13.80;;
32850;SDS011;19202;48.992;8.390;2022-12-07T22:11:52;31.10;;;13.38;;
32850;SDS011;19202;48.992;8.390;2022-12-07T22:17:30;28.27;;;13.75;;
32850;SDS011;19202;48.992;8.390;2022-12-07T22:23:07;33.08;;;14.52;;
32850;SDS011;19202;48.992;8.390;2022-12-07T22:28:45;31.77;;;14.50;;
32850;SDS011;19202;48.992;8.390;2022-12-07T22:34:24;28.35;;;13.65;;
32850;SDS011;19202;48.992;8.390;2022-12-07T22:40:02;32.40;;;15.00;;
32850;SDS011;19202;48.992;8.390;2022-12-07T22:45:40;27.83;;;14.02;;
32850;SDS011;19202;48.992;8.390;2022-12-07T22:51:19;30.13;;;13.70;;
32850;SDS011;19202;48.992;8.390;2022-12-07T22:57:04;28.33;;;14.85;;
32850;SDS011;19202;48.992;8.390;2022-12-07T23:02:43;33.22;;;14.82;;
32850;SDS011;19202;48.992;8.390;2022-12-07T23:08:21;27.52;;;14.63;;
32850;SDS011;19202;48.992;8.390;2022-12-07T23:13:59;28.77;;;14.43;;
32850;SDS011;19202;48.992;8.390;2022-12-07T23:19:38;25.73;;;13.35;;
32850;SDS011;19202;48.992;8.390;2022-12-07T23:25:16;27.48;;;12.65;;
32850;SDS011;19202;48.992;8.390;2022-12-07T23:30:59;29.02;;;12.27;;
32850;SDS011;19202;48.992;8.390;2022-12-07T23:36:42;24.48;;;11.85;;
32850;SDS011;19202;48.992;8.390;2022-12-07T23:42:19;24.08;;;11.82;;
32850;SDS011;19202;48.992;8.390;2022-12-07T23:47:57;23.85;;;10.45;;
32850;SDS011;19202;48.992;8.390;2022-12-07T23:53:36;25.10;;;11.32;;
32850;SDS011;19202;48.992;8.390;2022-12-07T23:59:16;19.63;;;9.98;;
